createdAt,value
2022-11-15T00:01:12.258Z,100616.81
2022-11-15T00:03:39.035Z,100630.88
2022-11-15T00:06:06.209Z,100629.13
2022-11-15T00:08:33.779Z,100623.84
2022-11-15T00:11:02.728Z,100634.41
2022-11-15T00:13:31.197Z,100639.69
2022-11-15T00:16:00.649Z,100644.09
2022-11-15T00:18:28.461Z,100639.69
2022-11-15T00:20:55.490Z,100629.09
2022-11-15T00:23:22.277Z,100628.19
2022-11-15T00:25:56.481Z,100629.06
2022-11-15T00:28:23.192Z,100636.09
2022-11-15T00:30:49.994Z,100637.84
2022-11-15T00:33:16.785Z,100638.72
2022-11-15T00:35:43.696Z,100630.78
2022-11-15T00:38:10.476Z,100638.72
2022-11-15T00:40:37.236Z,100619.34
2022-11-15T00:43:04.029Z,100616.69
2022-11-15T00:45:30.790Z,100613.16
2022-11-15T00:47:57.589Z,100615.78
2022-11-15T00:50:24.366Z,100619.31
2022-11-15T00:52:51.126Z,100609.63
2022-11-15T00:55:19.237Z,100621.94
2022-11-15T00:57:47.476Z,100629.84
2022-11-15T01:00:14.966Z,100629.88
2022-11-15T01:02:41.758Z,100628.97
2022-11-15T01:05:09.154Z,100627.22
2022-11-15T01:07:36.255Z,100618.44
2022-11-15T01:10:03.931Z,100623.72
2022-11-15T01:12:30.803Z,100619.38
2022-11-15T01:14:57.610Z,100614.09
2022-11-15T01:17:24.762Z,100605.28
2022-11-15T01:19:51.521Z,100606.19
2022-11-15T01:22:18.442Z,100596.53
2022-11-15T01:24:45.309Z,100592.97
2022-11-15T01:27:12.073Z,100589.47
2022-11-15T01:29:38.846Z,100588.56
2022-11-15T01:32:05.697Z,100583.28
2022-11-15T01:34:32.453Z,100586.81
2022-11-15T01:36:59.745Z,100578.00
2022-11-15T01:39:27.350Z,100587.69
2022-11-15T01:41:54.615Z,100578.91
2022-11-15T01:44:45.655Z,100587.69
2022-11-15T01:47:30.530Z,100574.47
2022-11-15T01:50:07.578Z,100576.25
2022-11-15T01:52:36.215Z,100569.16
2022-11-15T01:55:17.338Z,100555.06
2022-11-15T01:57:48.092Z,100550.66
2022-11-15T02:00:16.020Z,100556.84
2022-11-15T02:02:42.872Z,100549.78
2022-11-15T02:05:09.750Z,100551.53
2022-11-15T02:07:37.446Z,100541.84
2022-11-15T02:10:14.940Z,100552.41
2022-11-15T02:12:42.484Z,100552.44
2022-11-15T02:15:11.005Z,100546.25
2022-11-15T02:18:03.359Z,100541.84
2022-11-15T02:20:57.130Z,100534.78
2022-11-15T02:24:11.077Z,100530.41
2022-11-15T02:26:57.517Z,100530.41
2022-11-15T02:30:13.861Z,100530.38
2022-11-15T02:32:51.912Z,100526.84
2022-11-15T02:35:30.197Z,100519.78
2022-11-15T02:38:16.753Z,100518.91
2022-11-15T02:41:02.880Z,100523.31
2022-11-15T02:43:59.903Z,100510.97
2022-11-15T02:47:00.551Z,100504.81
2022-11-15T02:49:30.370Z,100513.63
2022-11-15T02:51:57.450Z,100514.50
2022-11-15T02:54:30.309Z,100505.69
2022-11-15T02:57:17.944Z,100502.19
2022-11-15T03:00:08.973Z,100509.22
2022-11-15T03:03:13.200Z,100503.06
2022-11-15T03:06:03.680Z,100507.44
2022-11-15T03:08:33.853Z,100496.88
2022-11-15T03:11:22.618Z,100501.28
2022-11-15T03:14:01.959Z,100499.50
2022-11-15T03:16:38.495Z,100495.13
2022-11-15T03:19:20.557Z,100495.13
2022-11-15T03:21:49.198Z,100494.22
2022-11-15T03:24:25.650Z,100497.75
2022-11-15T03:26:55.862Z,100502.19
2022-11-15T03:29:29.855Z,100501.28
2022-11-15T03:32:07.783Z,100499.53
2022-11-15T03:34:52.121Z,100495.09
2022-11-15T03:37:22.176Z,100499.53
2022-11-15T03:39:48.945Z,100499.53
2022-11-15T03:42:31.826Z,100492.47
2022-11-15T03:45:30.124Z,100497.78
2022-11-15T03:48:06.991Z,100495.13
2022-11-15T03:50:34.480Z,100495.09
2022-11-15T03:53:01.903Z,100500.41
2022-11-15T03:55:28.693Z,100503.94
2022-11-15T03:57:59.930Z,100506.59
2022-11-15T04:00:27.419Z,100503.06
2022-11-15T04:02:54.195Z,100500.41
2022-11-15T04:05:20.959Z,100503.94
2022-11-15T04:07:47.734Z,100503.94
2022-11-15T04:10:14.955Z,100502.16
2022-11-15T04:12:47.144Z,100498.66
2022-11-15T04:15:21.724Z,100488.94
2022-11-15T04:17:57.479Z,100495.13
2022-11-15T04:20:46.546Z,100492.47
2022-11-15T04:23:38.483Z,100489.84
2022-11-15T04:26:12.738Z,100491.56
2022-11-15T04:28:59.440Z,100490.72
2022-11-15T04:31:26.419Z,100491.59
2022-11-15T04:33:53.825Z,100484.53
2022-11-15T04:36:39.943Z,100499.50
2022-11-15T04:39:06.711Z,100495.09
2022-11-15T04:41:33.565Z,100504.81
2022-11-15T04:44:00.430Z,100496.84
2022-11-15T04:46:27.522Z,100497.72
2022-11-15T04:48:58.613Z,100509.19
2022-11-15T04:51:26.485Z,100512.69
2022-11-15T04:53:53.450Z,100511.81
2022-11-15T04:56:20.380Z,100511.81
2022-11-15T04:58:50.578Z,100523.25
2022-11-15T05:01:17.692Z,100516.22
2022-11-15T05:04:04.121Z,100515.34
2022-11-15T05:06:31.211Z,100508.28
2022-11-15T05:08:58.720Z,100516.19
2022-11-15T05:11:26.316Z,100515.31
2022-11-15T05:13:53.125Z,100511.78
2022-11-15T05:16:20.213Z,100518.84
2022-11-15T05:18:47.036Z,100510.03
2022-11-15T05:21:15.870Z,100514.44
2022-11-15T05:23:42.864Z,100513.56
2022-11-15T05:26:11.137Z,100520.59
2022-11-15T05:28:39.092Z,100516.22
2022-11-15T05:31:11.642Z,100520.63
2022-11-15T05:33:41.209Z,100514.47
2022-11-15T05:36:37.592Z,100518.03
2022-11-15T05:39:08.912Z,100521.53
2022-11-15T05:41:51.339Z,100519.81
2022-11-15T05:44:22.296Z,100512.75
2022-11-15T05:46:50.408Z,100521.56
2022-11-15T05:49:21.274Z,100516.28
2022-11-15T05:51:49.361Z,100519.81
2022-11-15T05:54:17.294Z,100514.50
2022-11-15T05:56:44.849Z,100502.16
2022-11-15T05:59:12.597Z,100502.13
2022-11-15T06:01:40.644Z,100502.13
2022-11-15T06:04:07.741Z,100506.53
2022-11-15T06:06:34.562Z,100495.06
2022-11-15T06:09:01.367Z,100502.09
2022-11-15T06:11:28.914Z,100491.50
2022-11-15T06:13:55.758Z,100500.34
2022-11-15T06:16:22.565Z,100501.22
2022-11-15T06:18:49.389Z,100503.88
2022-11-15T06:21:16.171Z,100509.16
2022-11-15T06:23:42.971Z,100514.41
2022-11-15T06:26:09.748Z,100503.81
2022-11-15T06:28:36.569Z,100500.28
2022-11-15T06:31:08.956Z,100504.69
2022-11-15T06:33:35.925Z,100509.09
2022-11-15T06:36:13.225Z,100501.13
2022-11-15T06:38:45.345Z,100499.38
2022-11-15T06:41:14.307Z,100501.13
2022-11-15T06:43:41.736Z,100504.69
2022-11-15T06:46:08.930Z,100496.69
2022-11-15T06:48:37.076Z,100505.53
2022-11-15T06:51:05.810Z,100498.44
2022-11-15T06:53:33.318Z,100507.28
2022-11-15T06:56:06.625Z,100512.56
2022-11-15T06:58:33.948Z,100509.91
2022-11-15T07:01:10.502Z,100513.44
2022-11-15T07:03:43.125Z,100520.47
2022-11-15T07:06:10.658Z,100524.84
2022-11-15T07:08:38.370Z,100531.91
2022-11-15T07:11:09.441Z,100518.63
2022-11-15T07:13:38.056Z,100519.53
2022-11-15T07:16:07.772Z,100521.25
2022-11-15T07:18:39.755Z,100520.34
2022-11-15T07:21:09.799Z,100521.19
2022-11-15T07:23:40.410Z,100510.56
2022-11-15T07:26:08.536Z,100522.88
2022-11-15T07:28:35.933Z,100517.53
2022-11-15T07:31:06.079Z,100516.59
2022-11-15T07:33:33.765Z,100523.63
2022-11-15T07:36:06.008Z,100521.81
2022-11-15T07:38:38.150Z,100519.16
2022-11-15T07:41:08.165Z,100522.63
2022-11-15T07:43:35.265Z,100532.31
2022-11-15T07:46:10.320Z,100534.91
2022-11-15T07:48:44.572Z,100531.31
2022-11-15T07:51:17.014Z,100529.47
2022-11-15T07:53:44.738Z,100525.91
2022-11-15T07:56:12.058Z,100531.16
2022-11-15T07:58:38.839Z,100520.50
2022-11-15T08:01:11.014Z,100516.91
2022-11-15T08:03:38.313Z,100516.91
2022-11-15T08:06:05.575Z,100517.78
2022-11-15T08:08:32.367Z,100513.38
2022-11-15T08:10:59.823Z,100522.22
2022-11-15T08:13:26.662Z,100520.44
2022-11-15T08:15:58.859Z,100517.75
2022-11-15T08:18:25.649Z,100519.56
2022-11-15T08:20:52.445Z,100516.91
2022-11-15T08:23:19.377Z,100522.19
2022-11-15T08:25:46.137Z,100518.66
2022-11-15T08:28:12.954Z,100517.75
2022-11-15T08:30:43.118Z,100519.53
2022-11-15T08:33:14.912Z,100511.50
2022-11-15T08:35:43.436Z,100514.16
2022-11-15T08:38:10.639Z,100521.22
2022-11-15T08:40:37.978Z,100518.56
2022-11-15T08:43:05.133Z,100525.59
2022-11-15T08:45:32.465Z,100517.56
2022-11-15T08:48:04.199Z,100516.63
2022-11-15T08:50:31.054Z,100516.53
2022-11-15T08:52:58.047Z,100519.97
2022-11-15T08:55:25.197Z,100520.72
2022-11-15T08:57:52.231Z,100511.72
2022-11-15T09:00:20.766Z,100519.59
2022-11-15T09:02:47.777Z,100506.16
2022-11-15T09:05:16.057Z,100514.84
2022-11-15T09:07:42.868Z,100516.50
2022-11-15T09:10:09.838Z,100503.03
2022-11-15T09:12:36.647Z,100505.50
2022-11-15T09:15:04.824Z,100502.72
2022-11-15T09:17:31.613Z,100502.56
2022-11-15T09:19:58.416Z,100501.53
2022-11-15T09:22:25.225Z,100504.91
2022-11-15T09:24:52.028Z,100495.94
2022-11-15T09:27:18.834Z,100489.59
2022-11-15T09:29:45.598Z,100491.22
2022-11-15T09:32:12.449Z,100494.69
2022-11-15T09:34:39.203Z,100492.75
2022-11-15T09:37:05.967Z,100496.16
2022-11-15T09:39:32.839Z,100497.75
2022-11-15T09:42:27.150Z,100495.78
2022-11-15T09:45:09.997Z,100492.94
2022-11-15T09:47:58.632Z,100491.91
2022-11-15T09:50:50.086Z,100498.88
2022-11-15T09:54:23.726Z,100488.94
2022-11-15T09:56:34.385Z,100494.97
2022-11-15T09:59:39.096Z,100486.81
2022-11-15T10:02:08.581Z,100484.03
2022-11-15T10:04:37.971Z,100491.00
2022-11-15T10:07:19.796Z,100488.16
2022-11-15T10:09:57.930Z,100476.53
2022-11-15T10:12:28.094Z,100476.44
2022-11-15T10:15:16.201Z,100469.22
2022-11-15T10:18:00.370Z,100475.34
2022-11-15T10:20:30.925Z,100477.09
2022-11-15T10:23:02.210Z,100463.66
2022-11-15T10:25:32.427Z,100471.56
2022-11-15T10:28:07.621Z,100472.41
2022-11-15T10:30:42.210Z,100467.88
2022-11-15T10:33:30.764Z,100475.78
2022-11-15T10:36:09.854Z,100476.66
2022-11-15T10:38:51.951Z,100465.03
2022-11-15T10:41:30.323Z,100464.03
2022-11-15T10:44:18.076Z,100463.97
2022-11-15T10:46:51.421Z,100462.19
2022-11-15T10:49:30.849Z,100459.41
2022-11-15T10:52:18.062Z,100462.03
2022-11-15T10:54:53.094Z,100451.31
2022-11-15T10:57:30.980Z,100446.78
2022-11-15T11:00:02.429Z,100443.22
2022-11-15T11:02:58.315Z,100444.06
2022-11-15T11:05:39.912Z,100444.06
2022-11-15T11:08:11.894Z,100436.00
2022-11-15T11:10:51.698Z,100443.94
2022-11-15T11:13:30.115Z,100442.03
2022-11-15T11:16:15.061Z,100432.16
2022-11-15T11:19:19.546Z,100437.41
2022-11-15T11:22:28.062Z,100439.16
2022-11-15T11:25:30.120Z,100432.06
2022-11-15T11:28:10.414Z,100424.03
2022-11-15T11:30:48.954Z,100421.31
2022-11-15T11:33:31.268Z,100423.84
2022-11-15T11:36:16.713Z,100411.28
2022-11-15T11:39:29.044Z,100404.03
2022-11-15T11:43:00.263Z,100402.06
2022-11-15T11:45:47.185Z,100388.44
2022-11-15T11:48:24.695Z,100390.00
2022-11-15T11:50:51.492Z,100384.50
2022-11-15T11:53:40.976Z,100386.84
2022-11-15T11:56:30.733Z,100396.47
2022-11-15T11:59:08.782Z,100394.53
2022-11-15T12:01:42.936Z,100394.41
2022-11-15T12:04:42.930Z,100393.34
2022-11-15T12:07:18.789Z,100387.09
2022-11-15T12:10:04.300Z,100387.09
2022-11-15T12:13:08.072Z,100387.88
2022-11-15T12:15:46.347Z,100391.28
2022-11-15T12:18:16.871Z,100382.13
2022-11-15T12:20:56.494Z,100380.09
2022-11-15T12:23:35.987Z,100389.63
2022-11-15T12:26:24.692Z,100380.50
2022-11-15T12:29:07.969Z,100379.44
2022-11-15T12:31:35.592Z,100371.25
2022-11-15T12:34:20.615Z,100371.03
2022-11-15T12:36:49.525Z,100372.72
2022-11-15T12:39:18.168Z,100362.78
2022-11-15T12:42:05.256Z,100358.28
2022-11-15T12:44:31.977Z,100359.22
2022-11-15T12:46:58.645Z,100353.06
2022-11-15T12:49:28.007Z,100345.06
2022-11-15T12:51:57.757Z,100344.19
2022-11-15T12:54:24.388Z,100347.81
2022-11-15T12:57:07.947Z,100352.28
2022-11-15T12:59:58.671Z,100341.66
2022-11-15T13:02:36.384Z,100340.81
2022-11-15T13:05:35.698Z,100339.06
2022-11-15T13:08:02.499Z,100340.91
2022-11-15T13:10:34.478Z,100331.94
2022-11-15T13:13:09.511Z,100340.81
2022-11-15T13:15:53.956Z,100334.50
2022-11-15T13:18:37.022Z,100330.91
2022-11-15T13:21:39.241Z,100327.38
2022-11-15T13:24:11.944Z,100320.25
2022-11-15T13:26:41.018Z,100311.38
2022-11-15T13:29:20.251Z,100315.78
2022-11-15T13:31:48.109Z,100299.72
2022-11-15T13:34:50.971Z,100297.88
2022-11-15T13:37:21.952Z,100304.13
2022-11-15T13:39:50.379Z,100305.84
2022-11-15T13:42:19.915Z,100307.59
2022-11-15T13:45:04.744Z,100301.28
2022-11-15T13:47:32.669Z,100303.00
2022-11-15T13:50:01.848Z,100301.06
2022-11-15T13:52:34.516Z,100294.72
2022-11-15T13:55:22.529Z,100299.97
2022-11-15T13:58:00.334Z,100278.56
2022-11-15T14:00:40.108Z,100284.66
2022-11-15T14:03:32.362Z,100279.31
2022-11-15T14:06:08.589Z,100279.22
2022-11-15T14:08:36.731Z,100279.22
2022-11-15T14:11:09.613Z,100269.41
2022-11-15T14:13:37.115Z,100272.13
2022-11-15T14:16:20.338Z,100269.47
2022-11-15T14:18:53.780Z,100272.31
2022-11-15T14:21:21.467Z,100265.31
2022-11-15T14:23:49.925Z,100271.72
2022-11-15T14:26:34.961Z,100267.41
2022-11-15T14:29:33.708Z,100265.88
2022-11-15T14:32:23.396Z,100256.28
2022-11-15T14:34:59.222Z,100255.53
2022-11-15T14:37:35.778Z,100251.22
2022-11-15T14:40:06.041Z,100253.09
2022-11-15T14:42:33.178Z,100248.66
2022-11-15T14:44:59.965Z,100242.44
2022-11-15T14:47:26.736Z,100247.78
2022-11-15T14:49:53.612Z,100251.41
2022-11-15T14:52:32.891Z,100246.13
2022-11-15T14:55:00.492Z,100243.63
2022-11-15T14:57:27.319Z,100238.38
2022-11-15T14:59:54.211Z,100235.00
2022-11-15T15:02:25.423Z,100236.81
2022-11-15T15:04:52.820Z,100229.84
2022-11-15T15:07:20.625Z,100232.66
2022-11-15T15:09:47.910Z,100232.81
2022-11-15T15:12:24.077Z,100232.03
2022-11-15T15:14:51.753Z,100234.88
2022-11-15T15:17:19.042Z,100230.53
2022-11-15T15:19:46.015Z,100237.78
2022-11-15T15:22:26.400Z,100228.97
2022-11-15T15:24:53.143Z,100234.44
2022-11-15T15:27:19.952Z,100229.19
2022-11-15T15:29:46.950Z,100222.97
2022-11-15T15:32:14.362Z,100218.69
2022-11-15T15:34:41.445Z,100223.22
2022-11-15T15:37:25.177Z,100224.13
2022-11-15T15:39:57.073Z,100218.03
2022-11-15T15:42:24.586Z,100219.88
2022-11-15T15:44:52.237Z,100217.31
2022-11-15T15:47:24.126Z,100207.63
2022-11-15T15:49:51.852Z,100207.69
2022-11-15T15:52:19.157Z,100197.94
2022-11-15T15:54:46.205Z,100210.47
2022-11-15T15:57:14.365Z,100200.72
2022-11-15T15:59:41.576Z,100201.66
2022-11-15T16:02:13.633Z,100199.00
2022-11-15T16:04:41.167Z,100201.78
2022-11-15T16:07:21.468Z,100198.22
2022-11-15T16:10:03.539Z,100192.94
2022-11-15T16:12:35.783Z,100197.47
2022-11-15T16:15:04.157Z,100196.59
2022-11-15T16:17:38.679Z,100200.16
2022-11-15T16:20:06.290Z,100190.41
2022-11-15T16:22:33.108Z,100187.72
2022-11-15T16:24:59.920Z,100186.91
2022-11-15T16:27:26.693Z,100176.22
2022-11-15T16:29:53.452Z,100178.91
2022-11-15T16:32:20.274Z,100187.84
2022-11-15T16:34:49.173Z,100178.09
2022-11-15T16:37:25.798Z,100182.59
2022-11-15T16:39:54.867Z,100173.78
2022-11-15T16:42:25.221Z,100169.41
2022-11-15T16:44:51.989Z,100181.00
2022-11-15T16:47:20.009Z,100165.09
2022-11-15T16:49:47.511Z,100159.75
2022-11-15T16:52:18.764Z,100161.50
2022-11-15T16:54:47.905Z,100149.06
2022-11-15T16:57:14.672Z,100157.09
2022-11-15T16:59:41.582Z,100159.75
2022-11-15T17:02:15.029Z,100157.88
2022-11-15T17:04:41.967Z,100156.25
2022-11-15T17:07:09.224Z,100153.63
2022-11-15T17:09:36.061Z,100154.59
2022-11-15T17:12:02.851Z,100145.75
2022-11-15T17:14:29.833Z,100142.25
2022-11-15T17:16:56.647Z,100144.00
2022-11-15T17:19:23.434Z,100146.72
2022-11-15T17:21:50.543Z,100145.03
2022-11-15T17:24:17.949Z,100143.28
2022-11-15T17:26:44.815Z,100147.75
2022-11-15T17:29:11.734Z,100140.78
2022-11-15T17:31:39.142Z,100147.97
2022-11-15T17:34:07.287Z,100133.78
2022-11-15T17:36:34.960Z,100135.63
2022-11-15T17:39:02.693Z,100128.53
2022-11-15T17:41:29.841Z,100132.13
2022-11-15T17:43:59.642Z,100131.25
2022-11-15T17:46:28.063Z,100130.38
2022-11-15T17:48:56.750Z,100130.38
2022-11-15T17:51:24.178Z,100129.53
2022-11-15T17:53:51.722Z,100120.63
2022-11-15T17:56:22.875Z,100117.97
2022-11-15T17:58:57.191Z,100119.75
2022-11-15T18:01:30.722Z,100104.69
2022-11-15T18:04:00.528Z,100107.44
2022-11-15T18:06:32.703Z,100104.78
2022-11-15T18:09:00.346Z,100098.63
2022-11-15T18:11:50.460Z,100100.47
2022-11-15T18:14:19.112Z,100104.06
2022-11-15T18:16:46.126Z,100100.56
2022-11-15T18:19:13.698Z,100100.66
2022-11-15T18:21:58.871Z,100096.31
2022-11-15T18:24:30.125Z,100092.88
2022-11-15T18:26:58.772Z,100097.44
2022-11-15T18:29:25.893Z,100093.03
2022-11-15T18:31:56.876Z,100088.66
2022-11-15T18:34:33.344Z,100083.34
2022-11-15T18:37:02.887Z,100089.59
2022-11-15T18:39:30.249Z,100082.50
2022-11-15T18:41:57.331Z,100079.84
2022-11-15T18:44:24.200Z,100085.16
2022-11-15T18:46:51.064Z,100086.94
2022-11-15T18:49:19.730Z,100077.16
2022-11-15T18:51:47.443Z,100079.84
2022-11-15T18:54:16.422Z,100070.03
2022-11-15T18:56:46.937Z,100081.63
2022-11-15T18:59:14.896Z,100070.09
2022-11-15T19:01:46.455Z,100065.69
2022-11-15T19:04:18.316Z,100055.00
2022-11-15T19:06:48.061Z,100062.13
2022-11-15T19:09:17.309Z,100056.88
2022-11-15T19:11:46.943Z,100058.69
2022-11-15T19:14:16.411Z,100057.78
2022-11-15T19:16:49.822Z,100050.66
2022-11-15T19:19:20.416Z,100048.00
2022-11-15T19:21:47.822Z,100048.91
2022-11-15T19:24:15.308Z,100047.13
2022-11-15T19:26:42.580Z,100040.06
2022-11-15T19:29:10.601Z,100041.00
2022-11-15T19:31:38.183Z,100042.81
2022-11-15T19:34:06.806Z,100049.94
2022-11-15T19:36:44.575Z,100042.81
2022-11-15T19:39:14.917Z,100039.34
2022-11-15T19:41:43.736Z,100041.94
2022-11-15T19:44:12.120Z,100035.72
2022-11-15T19:46:39.514Z,100036.63
2022-11-15T19:49:11.034Z,100021.47
2022-11-15T19:51:41.632Z,100024.13
2022-11-15T19:54:09.728Z,100015.25
2022-11-15T19:56:37.347Z,100028.56
2022-11-15T19:59:05.029Z,100021.47
2022-11-15T20:01:36.319Z,100015.28
2022-11-15T20:04:03.634Z,100016.16
2022-11-15T20:06:41.190Z,100022.25
2022-11-15T20:09:11.367Z,100009.91
2022-11-15T20:11:39.348Z,100014.41
2022-11-15T20:14:07.814Z,100014.50
2022-11-15T20:16:34.806Z,100015.47
2022-11-15T20:19:01.786Z,100010.22
2022-11-15T20:21:28.579Z,100020.94
2022-11-15T20:23:56.320Z,100023.69
2022-11-15T20:26:23.641Z,100025.53
2022-11-15T20:28:50.453Z,100020.34
2022-11-15T20:31:17.943Z,100006.22
2022-11-15T20:33:44.870Z,100016.00
2022-11-15T20:36:14.422Z,100005.41
2022-11-15T20:38:41.544Z,100004.63
2022-11-15T20:41:14.234Z,100012.66
2022-11-15T20:43:43.312Z,100004.75
2022-11-15T20:46:12.032Z,100018.13
2022-11-15T20:48:39.751Z,100010.19
2022-11-15T20:51:16.081Z,100006.66
2022-11-15T20:53:44.940Z,100003.97
2022-11-15T20:56:15.192Z,100008.44
2022-11-15T20:58:43.247Z,100004.88
2022-11-15T21:01:14.971Z,100006.66
2022-11-15T21:03:42.230Z,100003.06
2022-11-15T21:06:10.391Z,100003.94
2022-11-15T21:08:55.988Z,99999.47
2022-11-15T21:11:43.084Z,99993.31
2022-11-15T21:14:10.025Z,99995.09
2022-11-15T21:16:37.976Z,99985.31
2022-11-15T21:19:06.513Z,99984.41
2022-11-15T21:21:34.041Z,99980.81
2022-11-15T21:24:04.469Z,99977.22
2022-11-15T21:26:31.360Z,99977.22
2022-11-15T21:28:58.164Z,99982.53
2022-11-15T21:31:24.985Z,99974.56
2022-11-15T21:33:51.734Z,99979.91
2022-11-15T21:36:18.579Z,99978.97
2022-11-15T21:38:45.343Z,99981.66
2022-11-15T21:41:12.125Z,99978.97
2022-11-15T21:43:38.893Z,99974.53
2022-11-15T21:46:06.943Z,99972.75
2022-11-15T21:48:35.679Z,99965.66
2022-11-15T21:51:05.971Z,99971.91
2022-11-15T21:53:33.958Z,99969.22
2022-11-15T21:56:01.745Z,99956.81
2022-11-15T21:58:29.265Z,99956.81
2022-11-15T22:01:15.183Z,99956.91
2022-11-15T22:03:42.740Z,99945.44
2022-11-15T22:06:16.028Z,99951.69
2022-11-15T22:08:45.594Z,99943.72
2022-11-15T22:11:12.528Z,99946.44
2022-11-15T22:13:39.317Z,99940.28
2022-11-15T22:16:07.926Z,99942.94
2022-11-15T22:18:35.552Z,99935.03
2022-11-15T22:21:09.910Z,99934.09
2022-11-15T22:23:37.236Z,99924.38
2022-11-15T22:26:05.318Z,99920.84
2022-11-15T22:28:32.539Z,99922.59
2022-11-15T22:31:00.224Z,99916.38
2022-11-15T22:33:29.773Z,99911.94
2022-11-15T22:35:57.504Z,99919.00
2022-11-15T22:38:24.985Z,99916.38
2022-11-15T22:40:51.853Z,99915.44
2022-11-15T22:43:22.973Z,99920.78
2022-11-15T22:45:49.749Z,99918.09
2022-11-15T22:48:16.827Z,99912.78
2022-11-15T22:50:44.480Z,99915.44
2022-11-15T22:53:11.894Z,99910.19
2022-11-15T22:55:42.043Z,99899.53
2022-11-15T22:58:09.035Z,99909.31
2022-11-15T23:00:36.411Z,99900.47
2022-11-15T23:03:04.166Z,99900.47
2022-11-15T23:05:30.952Z,99892.47
2022-11-15T23:07:57.884Z,99893.41
2022-11-15T23:11:02.902Z,99877.44
2022-11-15T23:13:32.011Z,99886.34
2022-11-15T23:16:25.492Z,99888.94
2022-11-15T23:18:57.448Z,99880.13
2022-11-15T23:21:46.618Z,99890.81
2022-11-15T23:24:15.057Z,99880.25
2022-11-15T23:26:43.512Z,99883.81
2022-11-15T23:29:14.067Z,99875.84
2022-11-15T23:32:02.333Z,99866.94
2022-11-15T23:34:31.357Z,99857.19
2022-11-15T23:36:58.887Z,99850.94
2022-11-15T23:39:25.715Z,99852.78
2022-11-15T23:41:52.538Z,99856.28
2022-11-15T23:44:19.328Z,99854.53
2022-11-15T23:46:46.118Z,99854.53
2022-11-15T23:49:13.007Z,99849.19
2022-11-15T23:51:39.829Z,99852.75
2022-11-15T23:54:07.456Z,99846.53
2022-11-15T23:56:34.642Z,99849.19
2022-11-15T23:59:01.657Z,99836.84
